KLRJ/LRJ METAR and TAF weather

Enter ICAO airport designator
Station Type Date Time Source
KLRJ METAR 2018/12/13 05:55 UTC NOAA

KLRJ 130555Z AUTO 00000KT 10SM CLR M02/M03 A2977 RMK AO2


Station Type Date Time Source
KLRJ Decoded METAR 2018/12/13 05:55 UTC NOAA

Le Mars, Le Mars Municipal Airport, IA, United States (KLRJ) 42-46-41N 096-11-37W
Dec 13, 2018 - 12:55 AM EST / 2018.12.13 0555 UTC
Wind: Calm:0
Visibility: 10 mile(s):0
Sky conditions: clear
Temperature: 28 F (-2 C)
Dew Point: 26 F (-3 C)
Relative Humidity: 92%
Pressure (altimeter): 29.77 in. Hg (1008 hPa)
ob: KLRJ 130555Z AUTO 00000KT 10SM CLR M02/M03 A2977 RMK AO2
cycle: 6

Station Type Date Time Source
KLRJ TAF UTC NOAA

Error!


Example: see airport list